Auvergne, Arkansas
Current Conditions -  °F | °C
As of 9:56 AM on Saturday 20 Dec 2014 (Local Time) from KM19 Reporting Station
Overcast Overcast  
Wind Chill:   Ceiling: 3300
Heat Index:   Visibility: 7mi
Dew Point:   Wind: 5mph
Humidity: 89%   Direction: 60°ENE
Pressure: 30.31"   Gusts: NA
Location:  35.5678°N, 91.2073°W
Report Text: KM19 201556Z AUTO 06004KT 7SM OVC033 04/03 A3031 RMK AO2 T00440027 SLP264
Loading
Personal Weather Stations






























Interactive Weather Map New forecast layout! Learn more

10-Day Weather Forecast

Advertisements
Track Severe Weather on mobile